Time;durP1;ratioP1;P1;durP2;ratioP2;P2;SDS_P1;SDS_P2;PMS_P1;PMS_P2;Temp;Humidity;BMP_temperature;BMP_pressure;BME280_temperature;BME280_humidity;BME280_pressure;Samples;Min_cycle;Max_cycle;Signal;HPM_P1;HPM_P2
2022/10/21 00:00:12;;;;;;;13.40;11.33;;;;;;;;;;1882767;75;21171;-86
2022/10/21 00:02:42;;;;;;;14.05;10.90;;;;;;;;;;1902331;74;21108;-83
2022/10/21 00:05:13;;;;;;;16.42;12.90;;;;;;;;;;1890024;75;21132;-84
2022/10/21 00:07:43;;;;;;;17.40;11.33;;;;;;;;;;1900208;75;21126;-83
2022/10/21 00:10:13;;;;;;;15.98;10.85;;;;;;;;;;1950318;72;21061;-82
2022/10/21 00:12:44;;;;;;;14.30;10.63;;;;;;;;;;1871110;75;21831;-81
2022/10/21 00:15:14;;;;;;;14.05;10.53;;;;;;;;;;1853923;75;21200;-83
2022/10/21 00:17:44;;;;;;;14.10;9.78;;;;;;;;;;1904393;74;21197;-84
2022/10/21 00:20:14;;;;;;;12.43;9.43;;;;;;;;;;1895859;75;21127;-85
2022/10/21 00:22:45;;;;;;;12.80;9.78;;;;;;;;;;1874066;74;21182;-84
2022/10/21 00:25:15;;;;;;;15.60;10.05;;;;;;;;;;1894325;75;21208;-83
2022/10/21 00:27:45;;;;;;;14.93;9.05;;;;;;;;;;1911665;74;21151;-83
2022/10/21 00:30:17;;;;;;;14.10;8.70;;;;;;;;;;1882175;75;21072;-83
2022/10/21 00:32:47;;;;;;;12.95;8.90;;;;;;;;;;1873802;75;21207;-85
2022/10/21 00:35:18;;;;;;;10.82;8.50;;;;;;;;;;1857439;77;21216;-85
2022/10/21 00:37:48;;;;;;;11.88;8.48;;;;;;;;;;1911723;74;21115;-86
2022/10/21 00:40:18;;;;;;;12.78;7.85;;;;;;;;;;1924088;74;21055;-85
2022/10/21 00:42:49;;;;;;;14.98;7.95;;;;;;;;;;1919356;74;21078;-84
2022/10/21 00:45:20;;;;;;;13.20;8.38;;;;;;;;;;1909011;74;21088;-84
2022/10/21 00:47:52;;;;;;;10.93;7.53;;;;;;;;;;1932856;74;21106;-85
2022/10/21 00:50:26;;;;;;;12.60;7.90;;;;;;;;;;1909478;73;21216;-83
2022/10/21 00:52:57;;;;;;;11.45;7.55;;;;;;;;;;1907707;74;21206;-84
2022/10/21 00:55:29;;;;;;;10.70;7.37;;;;;;;;;;1910597;74;21142;-86
2022/10/21 00:58:02;;;;;;;10.53;6.83;;;;;;;;;;1921539;74;21163;-84
2022/10/21 01:00:33;;;;;;;10.78;6.95;;;;;;;;;;1899011;74;21794;-84
2022/10/21 01:03:04;;;;;;;9.65;6.55;;;;;;;;;;1917648;74;21210;-84
2022/10/21 01:05:38;;;;;;;11.48;7.20;;;;;;;;;;1923083;74;21761;-84
2022/10/21 01:08:08;;;;;;;11.88;7.87;;;;;;;;;;1919275;74;21111;-84
2022/10/21 01:10:38;;;;;;;30.65;9.63;;;;;;;;;;1873540;75;21201;-84
2022/10/21 01:13:22;;;;;;;20.10;7.92;;;;;;;;;;1899743;73;21060;-83
2022/10/21 01:16:03;;;;;;;18.62;7.65;;;;;;;;;;1893073;75;21162;-75
2022/10/21 01:18:40;;;;;;;14.23;6.90;;;;;;;;;;1932868;74;21265;-75
2022/10/21 01:21:17;;;;;;;11.12;6.55;;;;;;;;;;1872084;75;21117;-77
2022/10/21 01:23:58;;;;;;;13.28;7.40;;;;;;;;;;1907810;74;21627;-78
2022/10/21 01:26:29;;;;;;;16.23;7.47;;;;;;;;;;1896433;75;21154;-76
2022/10/21 01:29:06;;;;;;;10.53;6.90;;;;;;;;;;1896167;75;21123;-76
2022/10/21 01:31:41;;;;;;;10.00;7.12;;;;;;;;;;1945019;72;21120;-76
2022/10/21 01:34:13;;;;;;;8.98;6.47;;;;;;;;;;1953641;72;21194;-77
2022/10/21 01:36:50;;;;;;;10.98;6.80;;;;;;;;;;1946225;72;21146;-77
2022/10/21 01:39:22;;;;;;;10.30;6.30;;;;;;;;;;1950754;72;21193;-76
2022/10/21 01:41:53;;;;;;;11.38;6.45;;;;;;;;;;1942651;74;21056;-77
2022/10/21 01:44:25;;;;;;;8.45;5.95;;;;;;;;;;1954907;72;21111;-77
2022/10/21 01:47:02;;;;;;;7.97;4.67;;;;;;;;;;1943684;72;21044;-74
2022/10/21 01:49:34;;;;;;;7.08;4.85;;;;;;;;;;1966281;72;21123;-77
2022/10/21 01:52:05;;;;;;;8.45;5.55;;;;;;;;;;1952804;72;21554;-77
2022/10/21 01:54:36;;;;;;;7.67;5.08;;;;;;;;;;1957879;72;21159;-72
2022/10/21 01:57:08;;;;;;;10.85;6.15;;;;;;;;;;1944494;72;21151;-77
2022/10/21 01:59:38;;;;;;;9.20;4.90;;;;;;;;;;1943559;73;21119;-77
2022/10/21 02:02:09;;;;;;;8.03;5.20;;;;;;;;;;1947919;72;21194;-77
2022/10/21 02:04:41;;;;;;;8.35;4.85;;;;;;;;;;1958067;72;21159;-75
2022/10/21 02:07:12;;;;;;;11.08;4.28;;;;;;;;;;1943183;74;21132;-76
2022/10/21 02:09:42;;;;;;;6.35;4.12;;;;;;;;;;1932969;72;21159;-75
2022/10/21 02:12:13;;;;;;;7.05;4.75;;;;;;;;;;1946269;74;21135;-76
2022/10/21 02:14:44;;;;;;;5.20;3.67;;;;;;;;;;1925466;74;21162;-76
2022/10/21 02:17:16;;;;;;;5.60;3.60;;;;;;;;;;1931182;74;21139;-75
2022/10/21 02:19:46;;;;;;;6.30;3.50;;;;;;;;;;1925084;74;21122;-75
2022/10/21 02:22:18;;;;;;;6.05;3.67;;;;;;;;;;1932490;74;21153;-74
2022/10/21 02:25:02;;;;;;;6.12;3.37;;;;;;;;;;1920667;74;21189;-75
2022/10/21 02:27:32;;;;;;;7.28;3.50;;;;;;;;;;1924862;74;21186;-76
2022/10/21 02:30:03;;;;;;;5.33;3.02;;;;;;;;;;1924248;74;21764;-76
2022/10/21 02:32:41;;;;;;;4.92;2.40;;;;;;;;;;1929605;74;21106;-78
2022/10/21 02:35:28;;;;;;;4.65;2.98;;;;;;;;;;1931258;74;21127;-77
2022/10/21 02:38:00;;;;;;;5.67;2.90;;;;;;;;;;1920222;73;21119;-78
2022/10/21 02:40:32;;;;;;;5.85;4.00;;;;;;;;;;1926570;74;21154;-79
2022/10/21 02:43:03;;;;;;;5.22;3.15;;;;;;;;;;1899372;75;21127;-77
2022/10/21 02:45:34;;;;;;;5.45;3.30;;;;;;;;;;1870376;76;21203;-79
2022/10/21 02:48:05;;;;;;;7.03;2.80;;;;;;;;;;1881681;75;21123;-78
2022/10/21 02:50:35;;;;;;;6.62;3.20;;;;;;;;;;1880835;75;21240;-79
2022/10/21 02:53:06;;;;;;;5.35;3.22;;;;;;;;;;1857965;77;21282;-76
2022/10/21 02:55:36;;;;;;;4.75;3.35;;;;;;;;;;1842417;77;21298;-77
2022/10/21 02:58:07;;;;;;;6.72;3.20;;;;;;;;;;1856144;76;21119;-77
2022/10/21 03:00:37;;;;;;;6.95;3.70;;;;;;;;;;1875781;76;21123;-78
2022/10/21 03:03:07;;;;;;;6.58;3.42;;;;;;;;;;1859143;76;21163;-79
2022/10/21 03:05:37;;;;;;;4.42;3.12;;;;;;;;;;1860158;76;21614;-78
2022/10/21 03:08:08;;;;;;;6.30;3.55;;;;;;;;;;1865530;76;21764;-78
2022/10/21 03:10:38;;;;;;;6.95;3.95;;;;;;;;;;1868914;76;21159;-81
2022/10/21 03:13:09;;;;;;;8.33;3.80;;;;;;;;;;1882230;76;21060;-78
2022/10/21 03:15:39;;;;;;;6.28;3.90;;;;;;;;;;1874816;76;21146;-79
2022/10/21 03:18:10;;;;;;;6.83;3.17;;;;;;;;;;1868874;76;21583;-78
2022/10/21 03:20:40;;;;;;;4.33;3.10;;;;;;;;;;1846717;77;21147;-77
2022/10/21 03:23:10;;;;;;;5.17;3.10;;;;;;;;;;1876634;75;21372;-76
2022/10/21 03:25:41;;;;;;;5.90;3.90;;;;;;;;;;1854410;75;21193;-77
2022/10/21 03:28:11;;;;;;;4.95;3.02;;;;;;;;;;1854771;76;21165;-76
2022/10/21 03:30:42;;;;;;;4.78;3.55;;;;;;;;;;1860171;76;21209;-77
2022/10/21 03:33:12;;;;;;;5.58;3.50;;;;;;;;;;1879593;76;21213;-77
2022/10/21 03:35:43;;;;;;;5.67;2.98;;;;;;;;;;1914766;74;21068;-76
2022/10/21 03:38:14;;;;;;;4.65;3.15;;;;;;;;;;1929001;73;21150;-76
2022/10/21 03:40:45;;;;;;;5.92;3.20;;;;;;;;;;1939706;74;21208;-77
2022/10/21 03:43:15;;;;;;;5.65;3.22;;;;;;;;;;1943712;74;21068;-77
2022/10/21 03:45:47;;;;;;;5.15;3.42;;;;;;;;;;1922455;74;21119;-77
2022/10/21 03:48:17;;;;;;;5.08;3.05;;;;;;;;;;1918962;74;21195;-77
2022/10/21 03:50:48;;;;;;;5.53;3.50;;;;;;;;;;1924522;74;21111;-77
2022/10/21 03:53:19;;;;;;;5.75;3.12;;;;;;;;;;1913789;74;21174;-78
2022/10/21 03:55:51;;;;;;;5.33;3.17;;;;;;;;;;1916627;74;21454;-79
2022/10/21 03:58:24;;;;;;;4.62;3.40;;;;;;;;;;1934124;74;21139;-78
2022/10/21 04:00:54;;;;;;;11.75;3.75;;;;;;;;;;1929624;74;21126;-78
2022/10/21 04:03:24;;;;;;;6.60;3.12;;;;;;;;;;1926133;74;21135;-78
2022/10/21 04:05:55;;;;;;;4.28;3.05;;;;;;;;;;1925363;74;21171;-78
2022/10/21 04:08:26;;;;;;;6.70;3.35;;;;;;;;;;1920630;74;21671;-76
2022/10/21 04:10:59;;;;;;;5.62;3.12;;;;;;;;;;1920688;74;21214;-76
2022/10/21 04:13:30;;;;;;;4.78;3.00;;;;;;;;;;1922992;74;21117;-77
2022/10/21 04:16:02;;;;;;;5.50;3.10;;;;;;;;;;1923649;74;21893;-77
2022/10/21 04:18:33;;;;;;;5.53;2.60;;;;;;;;;;1864003;76;21119;-77
2022/10/21 04:21:04;;;;;;;4.55;2.85;;;;;;;;;;1876574;75;21153;-77
2022/10/21 04:23:34;;;;;;;3.40;2.20;;;;;;;;;;1863803;75;21235;-78
2022/10/21 04:26:05;;;;;;;4.30;2.12;;;;;;;;;;1842092;77;21126;-79
2022/10/21 04:28:35;;;;;;;5.05;2.55;;;;;;;;;;1844462;77;21220;-78
2022/10/21 04:31:06;;;;;;;4.95;2.67;;;;;;;;;;1855749;76;21188;-80
2022/10/21 04:33:36;;;;;;;3.58;2.02;;;;;;;;;;1864482;76;21091;-79
2022/10/21 04:36:06;;;;;;;3.55;2.35;;;;;;;;;;1854252;76;21116;-80
2022/10/21 04:38:37;;;;;;;4.40;2.80;;;;;;;;;;1856699;75;21182;-79
2022/10/21 04:41:07;;;;;;;4.15;2.75;;;;;;;;;;1856790;76;21126;-79
2022/10/21 04:43:38;;;;;;;5.35;2.42;;;;;;;;;;1854679;76;21116;-78
2022/10/21 04:46:10;;;;;;;5.80;2.77;;;;;;;;;;1866704;76;21240;-78
2022/10/21 04:48:41;;;;;;;3.37;2.27;;;;;;;;;;1853933;76;21162;-78
2022/10/21 04:51:11;;;;;;;7.60;2.87;;;;;;;;;;1846822;76;21576;-79
2022/10/21 04:53:42;;;;;;;6.30;2.47;;;;;;;;;;1850200;76;21122;-78
2022/10/21 04:56:12;;;;;;;4.42;2.25;;;;;;;;;;1858936;76;21125;-77
2022/10/21 04:58:42;;;;;;;5.08;2.85;;;;;;;;;;1861835;76;21186;-76
2022/10/21 05:01:13;;;;;;;4.70;2.50;;;;;;;;;;1857498;76;21198;-79
2022/10/21 05:03:43;;;;;;;4.22;2.58;;;;;;;;;;1819397;76;21216;-77
2022/10/21 05:06:13;;;;;;;4.40;2.75;;;;;;;;;;1815596;77;21089;-77
2022/10/21 05:08:44;;;;;;;3.72;2.50;;;;;;;;;;1815569;77;21148;-79
2022/10/21 05:11:14;;;;;;;4.92;2.27;;;;;;;;;;1826852;77;21104;-77
2022/10/21 05:13:45;;;;;;;3.50;2.60;;;;;;;;;;1843277;77;21184;-77
2022/10/21 05:16:15;;;;;;;4.08;2.62;;;;;;;;;;1821789;77;21166;-78
2022/10/21 05:18:46;;;;;;;3.08;2.40;;;;;;;;;;1816054;77;21093;-77
2022/10/21 05:21:16;;;;;;;5.03;2.72;;;;;;;;;;1822022;77;21188;-77
2022/10/21 05:23:47;;;;;;;4.30;2.08;;;;;;;;;;1853478;76;21136;-77
2022/10/21 05:26:17;;;;;;;3.72;2.33;;;;;;;;;;1856014;76;21223;-77
2022/10/21 05:28:48;;;;;;;3.30;2.20;;;;;;;;;;1861582;76;21135;-78
2022/10/21 05:31:18;;;;;;;3.27;2.00;;;;;;;;;;1915419;74;21133;-77
2022/10/21 05:33:49;;;;;;;4.95;2.10;;;;;;;;;;1907422;74;21121;-77
2022/10/21 05:36:19;;;;;;;3.87;2.15;;;;;;;;;;1919511;74;21142;-77
2022/10/21 05:38:51;;;;;;;4.75;2.33;;;;;;;;;;1917902;73;21833;-78
2022/10/21 05:41:21;;;;;;;3.27;2.02;;;;;;;;;;1932019;74;21178;-79
2022/10/21 05:43:52;;;;;;;2.85;2.10;;;;;;;;;;1915906;74;21076;-78
2022/10/21 05:46:25;;;;;;;3.33;2.02;;;;;;;;;;1911964;74;21122;-78
2022/10/21 05:48:56;;;;;;;2.95;2.02;;;;;;;;;;1927290;74;21084;-78
2022/10/21 05:51:27;;;;;;;5.97;1.90;;;;;;;;;;1913196;74;21068;-80
2022/10/21 05:53:58;;;;;;;3.37;1.90;;;;;;;;;;1912296;74;21103;-78
2022/10/21 05:56:37;;;;;;;2.17;1.55;;;;;;;;;;1917100;74;21213;-79
2022/10/21 05:59:04;;;;;;;2.90;2.10;;;;;;;;;;1915223;74;21603;-78
2022/10/21 06:01:36;;;;;;;3.35;2.12;;;;;;;;;;1936990;74;21179;-77
2022/10/21 06:04:07;;;;;;;2.87;1.77;;;;;;;;;;1918911;74;21119;-77
2022/10/21 06:06:38;;;;;;;4.05;1.80;;;;;;;;;;1919483;74;21155;-79
2022/10/21 06:09:09;;;;;;;5.97;2.10;;;;;;;;;;1915094;75;21163;-79
2022/10/21 06:11:40;;;;;;;2.20;1.62;;;;;;;;;;1914133;74;21173;-78
2022/10/21 06:14:10;;;;;;;2.80;1.80;;;;;;;;;;1916719;74;21099;-79
2022/10/21 06:16:40;;;;;;;2.45;1.60;;;;;;;;;;1907497;74;21117;-80
2022/10/21 06:19:11;;;;;;;2.98;1.72;;;;;;;;;;1914773;74;21171;-78
2022/10/21 06:21:41;;;;;;;3.27;1.98;;;;;;;;;;1913170;74;21106;-78
2022/10/21 06:24:12;;;;;;;3.10;2.00;;;;;;;;;;1923494;74;21147;-78
2022/10/21 06:26:42;;;;;;;3.27;1.95;;;;;;;;;;1917794;74;21240;-80
2022/10/21 06:29:14;;;;;;;6.33;1.80;;;;;;;;;;1916879;74;21112;-77
2022/10/21 06:31:45;;;;;;;4.12;2.05;;;;;;;;;;1891376;75;21167;-78
2022/10/21 06:34:16;;;;;;;4.70;2.08;;;;;;;;;;1902996;74;21075;-78
2022/10/21 06:36:46;;;;;;;2.80;1.85;;;;;;;;;;1945135;73;21111;-80
2022/10/21 06:39:17;;;;;;;2.62;1.80;;;;;;;;;;1891497;76;21138;-77
2022/10/21 06:41:47;;;;;;;3.62;1.90;;;;;;;;;;1856541;76;21268;-77
2022/10/21 06:44:17;;;;;;;3.17;1.95;;;;;;;;;;1917115;74;21503;-77
2022/10/21 06:46:48;;;;;;;4.47;2.40;;;;;;;;;;1906714;73;21130;-77
2022/10/21 06:49:18;;;;;;;3.37;1.80;;;;;;;;;;1873537;76;21189;-77
2022/10/21 06:51:48;;;;;;;3.37;1.60;;;;;;;;;;1906013;74;21190;-80
2022/10/21 06:54:19;;;;;;;2.67;1.85;;;;;;;;;;1908702;74;21544;-78
2022/10/21 06:56:49;;;;;;;3.62;1.80;;;;;;;;;;1870027;76;21183;-78
2022/10/21 06:59:19;;;;;;;4.05;2.37;;;;;;;;;;1915014;73;21096;-77
2022/10/21 07:01:50;;;;;;;4.58;2.33;;;;;;;;;;1917262;74;21614;-77
2022/10/21 07:04:22;;;;;;;3.72;2.08;;;;;;;;;;1924217;74;21178;-79
2022/10/21 07:06:52;;;;;;;4.37;2.17;;;;;;;;;;1911352;74;21108;-76
2022/10/21 07:09:24;;;;;;;2.50;1.95;;;;;;;;;;1926453;74;21801;-77
2022/10/21 07:11:54;;;;;;;3.05;1.87;;;;;;;;;;1918898;74;21095;-77
2022/10/21 07:14:25;;;;;;;5.30;2.02;;;;;;;;;;1928221;74;21060;-80
2022/10/21 07:16:55;;;;;;;3.60;2.05;;;;;;;;;;1922076;74;21609;-80
2022/10/21 07:19:28;;;;;;;2.47;1.85;;;;;;;;;;1916830;74;21154;-80
2022/10/21 07:22:00;;;;;;;3.47;2.10;;;;;;;;;;1911003;74;21193;-78
2022/10/21 07:24:30;;;;;;;4.37;1.85;;;;;;;;;;1918907;74;21150;-79
2022/10/21 07:27:01;;;;;;;3.92;2.33;;;;;;;;;;1924819;74;21073;-78
2022/10/21 07:29:31;;;;;;;3.17;1.98;;;;;;;;;;1925778;74;21764;-80
2022/10/21 07:32:02;;;;;;;3.25;2.10;;;;;;;;;;1921253;73;21889;-79
2022/10/21 07:34:32;;;;;;;2.50;1.90;;;;;;;;;;1916829;74;21138;-81
2022/10/21 07:37:03;;;;;;;2.77;2.00;;;;;;;;;;1921453;74;21101;-80
2022/10/21 07:39:38;;;;;;;2.60;1.90;;;;;;;;;;1923217;74;21119;-78
2022/10/21 07:42:05;;;;;;;6.92;2.67;;;;;;;;;;1920780;74;21155;-78
2022/10/21 07:44:35;;;;;;;3.22;1.90;;;;;;;;;;1917349;74;21232;-79
2022/10/21 07:47:06;;;;;;;3.22;1.85;;;;;;;;;;1910734;74;21098;-80
2022/10/21 07:49:37;;;;;;;4.67;2.35;;;;;;;;;;1904281;74;21210;-81
2022/10/21 07:52:09;;;;;;;3.15;2.22;;;;;;;;;;1929320;74;21113;-79
2022/10/21 07:54:39;;;;;;;4.28;2.08;;;;;;;;;;1922753;74;21270;-80
2022/10/21 07:57:10;;;;;;;3.08;2.00;;;;;;;;;;1919334;74;21083;-80
2022/10/21 07:59:46;;;;;;;3.10;1.98;;;;;;;;;;1921886;74;21159;-80
2022/10/21 08:02:17;;;;;;;4.30;2.20;;;;;;;;;;1927344;74;21181;-81
2022/10/21 08:04:49;;;;;;;2.98;2.10;;;;;;;;;;1918191;74;21154;-80
2022/10/21 08:07:19;;;;;;;2.60;2.05;;;;;;;;;;1919835;74;21183;-79
2022/10/21 08:09:50;;;;;;;3.52;1.80;;;;;;;;;;1928318;74;21157;-81
2022/10/21 08:12:20;;;;;;;3.87;2.20;;;;;;;;;;1921801;74;21077;-80
2022/10/21 08:14:51;;;;;;;2.83;1.90;;;;;;;;;;1925111;74;21385;-79
2022/10/21 08:17:21;;;;;;;4.08;2.00;;;;;;;;;;1924813;74;21103;-80
2022/10/21 08:19:51;;;;;;;4.17;2.83;;;;;;;;;;1923002;74;21177;-82
2022/10/21 08:22:21;;;;;;;4.00;2.42;;;;;;;;;;1913834;74;22274;-80
2022/10/21 08:24:52;;;;;;;3.58;2.55;;;;;;;;;;1886518;75;21190;-78
2022/10/21 08:27:22;;;;;;;3.20;2.20;;;;;;;;;;1858752;76;21220;-81
2022/10/21 08:29:57;;;;;;;3.17;2.02;;;;;;;;;;1863105;76;21163;-79
2022/10/21 08:32:28;;;;;;;2.90;2.02;;;;;;;;;;1865198;76;21139;-79
2022/10/21 08:34:59;;;;;;;3.20;2.17;;;;;;;;;;1862701;76;21091;-78
2022/10/21 08:37:29;;;;;;;3.62;2.50;;;;;;;;;;1861935;76;21077;-80
2022/10/21 08:39:59;;;;;;;3.15;2.20;;;;;;;;;;1859895;76;21052;-78
2022/10/21 08:42:31;;;;;;;3.15;2.55;;;;;;;;;;1862915;76;21606;-79
2022/10/21 08:45:05;;;;;;;3.15;2.12;;;;;;;;;;1867556;76;21722;-79
2022/10/21 08:47:44;;;;;;;4.10;2.62;;;;;;;;;;1863007;75;21680;-79
2022/10/21 08:50:14;;;;;;;5.17;2.52;;;;;;;;;;1879539;75;21099;-79
2022/10/21 08:52:47;;;;;;;3.92;2.50;;;;;;;;;;1862612;76;21621;-80
2022/10/21 08:55:22;;;;;;;3.10;2.50;;;;;;;;;;1901933;75;21150;-79
2022/10/21 08:57:54;;;;;;;3.40;2.40;;;;;;;;;;1915752;74;21075;-79
2022/10/21 09:00:25;;;;;;;3.95;2.45;;;;;;;;;;1920048;74;21138;-78
2022/10/21 09:03:13;;;;;;;3.62;2.47;;;;;;;;;;1915894;74;21123;-79
2022/10/21 09:05:57;;;;;;;2.98;2.25;;;;;;;;;;1877270;75;21150;-80
2022/10/21 09:08:34;;;;;;;4.10;2.33;;;;;;;;;;1888299;74;21076;-81
2022/10/21 09:11:14;;;;;;;6.92;3.60;;;;;;;;;;1887310;74;21103;-78
2022/10/21 09:13:54;;;;;;;3.20;2.25;;;;;;;;;;1884256;75;21171;-79
2022/10/21 09:16:42;;;;;;;5.33;2.90;;;;;;;;;;1904110;75;21183;-79
2022/10/21 09:19:34;;;;;;;4.00;2.22;;;;;;;;;;1892982;73;21122;-80
2022/10/21 09:22:19;;;;;;;3.47;2.42;;;;;;;;;;1916898;74;21623;-80
2022/10/21 09:24:59;;;;;;;4.62;2.35;;;;;;;;;;1864144;76;21133;-79
2022/10/21 09:27:31;;;;;;;3.27;2.30;;;;;;;;;;1849271;76;21705;-81
2022/10/21 09:30:09;;;;;;;3.55;2.20;;;;;;;;;;1880886;75;21575;-81
2022/10/21 09:32:41;;;;;;;3.35;2.27;;;;;;;;;;1931243;73;22133;-77
2022/10/21 09:35:29;;;;;;;3.62;2.40;;;;;;;;;;1915593;74;21158;-79
2022/10/21 09:37:58;;;;;;;3.42;2.40;;;;;;;;;;1923721;74;21220;-78
2022/10/21 09:40:29;;;;;;;3.40;2.42;;;;;;;;;;1915772;74;21170;-80
2022/10/21 09:43:00;;;;;;;3.85;2.42;;;;;;;;;;1923923;74;21133;-80
2022/10/21 09:45:43;;;;;;;4.45;2.45;;;;;;;;;;1923540;74;21151;-79
2022/10/21 09:48:20;;;;;;;5.22;2.72;;;;;;;;;;1924092;74;21131;-78
2022/10/21 09:50:58;;;;;;;4.08;2.70;;;;;;;;;;1910122;74;21151;-79
2022/10/21 09:53:29;;;;;;;3.67;2.60;;;;;;;;;;1912540;74;21192;-79
2022/10/21 09:56:06;;;;;;;6.35;2.50;;;;;;;;;;1904601;74;21135;-79
2022/10/21 09:58:38;;;;;;;3.80;2.55;;;;;;;;;;1864248;76;21138;-80
2022/10/21 10:01:10;;;;;;;4.00;2.95;;;;;;;;;;1906206;74;21185;-79
2022/10/21 10:03:44;;;;;;;3.52;2.67;;;;;;;;;;1866864;75;21280;-79
2022/10/21 10:06:15;;;;;;;8.70;2.90;;;;;;;;;;1889446;75;21135;-79
2022/10/21 10:08:46;;;;;;;4.80;2.75;;;;;;;;;;1859035;76;21208;-80
2022/10/21 10:11:17;;;;;;;9.98;3.55;;;;;;;;;;1885248;74;21235;-80
2022/10/21 10:13:51;;;;;;;4.45;3.30;;;;;;;;;;1906650;75;21130;-80
2022/10/21 10:16:23;;;;;;;4.17;3.15;;;;;;;;;;1883130;75;21146;-79
2022/10/21 10:18:54;;;;;;;4.55;2.80;;;;;;;;;;1911303;73;21143;-80
2022/10/21 10:21:28;;;;;;;3.95;2.65;;;;;;;;;;1947192;73;21144;-81
2022/10/21 10:23:59;;;;;;;3.50;2.58;;;;;;;;;;1932001;73;21200;-79
2022/10/21 10:26:31;;;;;;;4.90;2.87;;;;;;;;;;1910088;74;21197;-76
2022/10/21 10:29:18;;;;;;;5.05;2.90;;;;;;;;;;1912845;74;21204;-78
2022/10/21 10:31:50;;;;;;;3.75;2.77;;;;;;;;;;1909809;74;21709;-81
2022/10/21 10:34:22;;;;;;;5.58;3.27;;;;;;;;;;1879082;74;21190;-77
2022/10/21 10:36:54;;;;;;;5.97;3.08;;;;;;;;;;1898842;74;21202;-77
2022/10/21 10:39:25;;;;;;;10.05;3.67;;;;;;;;;;1887394;75;21074;-87
2022/10/21 10:41:59;;;;;;;6.17;5.12;;;;;;;;;;1907820;74;21162;-89
2022/10/21 10:44:39;;;;;;;5.17;3.60;;;;;;;;;;1889131;74;21578;-86
2022/10/21 10:47:11;;;;;;;9.93;3.85;;;;;;;;;;1887295;76;21550;-86
2022/10/21 10:49:42;;;;;;;6.33;4.20;;;;;;;;;;1883665;74;21173;-87
2022/10/21 10:52:14;;;;;;;7.60;5.25;;;;;;;;;;1892801;74;21139;-87
2022/10/21 10:54:45;;;;;;;10.03;5.67;;;;;;;;;;1919008;74;21197;-86
2022/10/21 10:57:17;;;;;;;15.35;6.28;;;;;;;;;;1876631;75;21150;-87
2022/10/21 10:59:48;;;;;;;13.00;7.03;;;;;;;;;;1889619;74;21166;-87
2022/10/21 11:02:25;;;;;;;11.25;6.47;;;;;;;;;;1874046;76;21162;-86
2022/10/21 11:04:59;;;;;;;8.40;4.80;;;;;;;;;;1923416;74;21204;-86
2022/10/21 11:07:30;;;;;;;8.68;5.42;;;;;;;;;;1916297;74;21136;-86
2022/10/21 11:10:04;;;;;;;7.47;5.30;;;;;;;;;;1929554;74;21653;-86
2022/10/21 11:12:36;;;;;;;8.15;5.47;;;;;;;;;;1920900;74;21189;-88
2022/10/21 11:15:07;;;;;;;10.35;5.22;;;;;;;;;;1912412;74;21180;-88
2022/10/21 11:17:39;;;;;;;10.28;5.58;;;;;;;;;;1930892;74;21181;-87
2022/10/21 11:20:29;;;;;;;12.73;5.95;;;;;;;;;;1942978;74;21113;-86
2022/10/21 11:23:17;;;;;;;8.75;4.67;;;;;;;;;;1921904;74;21169;-87
2022/10/21 11:25:54;;;;;;;10.13;5.25;;;;;;;;;;1929987;74;21143;-87
2022/10/21 11:28:28;;;;;;;8.43;5.50;;;;;;;;;;1938125;74;21193;-87
2022/10/21 11:31:15;;;;;;;10.43;5.78;;;;;;;;;;1913726;74;21621;-86
2022/10/21 11:33:46;;;;;;;9.58;5.62;;;;;;;;;;1928233;73;21064;-86
2022/10/21 11:36:21;;;;;;;8.33;5.35;;;;;;;;;;1920012;74;21604;-86
2022/10/21 11:38:55;;;;;;;10.18;5.58;;;;;;;;;;1908476;74;21678;-87
2022/10/21 11:41:33;;;;;;;8.23;5.25;;;;;;;;;;1822480;77;21127;-86
2022/10/21 11:44:07;;;;;;;9.55;5.50;;;;;;;;;;1896644;75;21737;-86
2022/10/21 11:46:42;;;;;;;10.23;6.83;;;;;;;;;;1840401;75;21150;-87
2022/10/21 11:49:19;;;;;;;9.48;6.30;;;;;;;;;;1872682;74;21157;-87
2022/10/21 11:51:51;;;;;;;11.18;6.30;;;;;;;;;;1882422;73;21111;-86
2022/10/21 11:54:22;;;;;;;14.03;8.20;;;;;;;;;;1890764;73;21138;-86
2022/10/21 11:56:56;;;;;;;14.20;8.93;;;;;;;;;;1884779;75;21140;-88
2022/10/21 11:59:37;;;;;;;11.75;8.45;;;;;;;;;;1889195;75;21232;-88
2022/10/21 12:02:11;;;;;;;11.60;8.40;;;;;;;;;;1894378;75;21114;-87
2022/10/21 12:04:43;;;;;;;16.95;8.60;;;;;;;;;;1900873;75;21127;-88
2022/10/21 12:07:14;;;;;;;12.65;8.35;;;;;;;;;;1896015;75;21149;-87
2022/10/21 12:09:45;;;;;;;14.07;8.73;;;;;;;;;;1876499;76;21269;-87
2022/10/21 12:12:20;;;;;;;14.35;7.75;;;;;;;;;;1871174;76;21154;-85
2022/10/21 12:14:57;;;;;;;12.88;8.25;;;;;;;;;;1868058;76;21630;-87
2022/10/21 12:17:29;;;;;;;16.27;8.65;;;;;;;;;;1923703;74;21136;-88
2022/10/21 12:20:03;;;;;;;13.20;7.87;;;;;;;;;;1906717;74;21238;-85
2022/10/21 12:22:34;;;;;;;13.32;8.25;;;;;;;;;;1898260;74;21127;-88
2022/10/21 12:25:09;;;;;;;12.10;8.40;;;;;;;;;;1931935;74;21135;-85
2022/10/21 12:27:40;;;;;;;11.50;7.55;;;;;;;;;;1938427;73;21123;-86
2022/10/21 12:30:19;;;;;;;10.68;7.25;;;;;;;;;;1943016;74;21671;-88
2022/10/21 12:33:10;;;;;;;13.70;7.40;;;;;;;;;;1913483;73;21653;-85
2022/10/21 12:35:44;;;;;;;14.78;8.20;;;;;;;;;;1915430;74;21084;-87
2022/10/21 12:38:24;;;;;;;11.03;7.33;;;;;;;;;;1910838;75;21200;-86
2022/10/21 12:40:56;;;;;;;12.33;7.65;;;;;;;;;;1911192;74;21035;-87
2022/10/21 12:43:27;;;;;;;11.10;6.78;;;;;;;;;;1915558;74;21189;-86
2022/10/21 12:46:05;;;;;;;11.68;6.53;;;;;;;;;;1916785;74;21114;-87
2022/10/21 12:48:45;;;;;;;10.72;6.78;;;;;;;;;;1915018;74;21111;-86
2022/10/21 12:51:23;;;;;;;10.15;6.03;;;;;;;;;;1925088;74;21110;-86
2022/10/21 12:53:57;;;;;;;13.65;6.35;;;;;;;;;;1914758;74;21051;-87
2022/10/21 12:56:32;;;;;;;11.97;6.15;;;;;;;;;;1917344;74;21587;-87
2022/10/21 12:59:30;;;;;;;10.72;7.00;;;;;;;;;;1923058;74;21256;-86
2022/10/21 13:02:08;;;;;;;12.40;7.05;;;;;;;;;;1924297;74;21143;-87
2022/10/21 13:04:47;;;;;;;11.12;6.72;;;;;;;;;;1939913;74;21119;-88
2022/10/21 13:07:18;;;;;;;13.45;6.97;;;;;;;;;;1934622;74;21068;-86
2022/10/21 13:09:56;;;;;;;14.05;8.50;;;;;;;;;;1932655;74;22159;-87
2022/10/21 13:12:27;;;;;;;12.03;7.72;;;;;;;;;;1932327;74;21177;-85
2022/10/21 13:14:59;;;;;;;11.65;7.78;;;;;;;;;;1923640;74;21488;-85
2022/10/21 13:17:34;;;;;;;14.50;8.10;;;;;;;;;;1908370;74;21092;-86
2022/10/21 13:20:08;;;;;;;15.23;7.67;;;;;;;;;;1904043;73;21163;-87
2022/10/21 13:22:40;;;;;;;14.47;8.13;;;;;;;;;;1926122;74;21048;-86
2022/10/21 13:25:12;;;;;;;13.65;7.87;;;;;;;;;;1923733;74;21177;-86
2022/10/21 13:27:43;;;;;;;11.65;7.78;;;;;;;;;;1930308;74;21032;-86
2022/10/21 13:30:31;;;;;;;16.27;8.98;;;;;;;;;;1914296;74;21513;-87
2022/10/21 13:33:03;;;;;;;15.80;7.75;;;;;;;;;;1921977;74;21095;-85
2022/10/21 13:35:47;;;;;;;13.98;8.65;;;;;;;;;;1916586;74;21156;-87
2022/10/21 13:38:24;;;;;;;13.72;7.67;;;;;;;;;;1916208;74;21111;-86
2022/10/21 13:40:56;;;;;;;12.93;7.67;;;;;;;;;;1938078;74;21127;-86
2022/10/21 13:43:28;;;;;;;12.68;8.45;;;;;;;;;;1928386;74;21131;-86
2022/10/21 13:45:59;;;;;;;11.30;8.13;;;;;;;;;;1935619;74;21076;-85
2022/10/21 13:48:30;;;;;;;17.52;8.83;;;;;;;;;;1940355;73;21141;-86
2022/10/21 13:51:01;;;;;;;16.57;9.18;;;;;;;;;;1929132;74;21105;-86
2022/10/21 13:53:36;;;;;;;16.05;8.45;;;;;;;;;;1917384;74;21253;-88
2022/10/21 13:56:08;;;;;;;16.25;8.95;;;;;;;;;;1932384;73;21060;-87
2022/10/21 13:58:39;;;;;;;16.65;9.25;;;;;;;;;;1926511;73;21185;-88
2022/10/21 14:01:10;;;;;;;17.65;9.45;;;;;;;;;;1920334;74;21117;-88
2022/10/21 14:03:41;;;;;;;15.63;9.85;;;;;;;;;;1916054;74;21176;-88
2022/10/21 14:06:13;;;;;;;21.57;10.85;;;;;;;;;;1925305;73;21189;-89
2022/10/21 14:08:47;;;;;;;18.32;9.68;;;;;;;;;;1924836;74;21143;-87
2022/10/21 14:11:18;;;;;;;19.10;10.53;;;;;;;;;;1922269;74;21104;-88
2022/10/21 14:13:50;;;;;;;16.80;9.90;;;;;;;;;;1921460;74;21217;-88
2022/10/21 14:16:21;;;;;;;13.22;9.50;;;;;;;;;;1921658;74;21091;-89
2022/10/21 14:18:53;;;;;;;15.23;9.35;;;;;;;;;;1928539;73;21663;-88
2022/10/21 14:21:24;;;;;;;15.25;9.08;;;;;;;;;;1920991;75;21168;-88
2022/10/21 14:23:56;;;;;;;13.85;9.20;;;;;;;;;;1915732;74;21133;-86
2022/10/21 14:26:29;;;;;;;16.87;9.20;;;;;;;;;;1928459;74;21091;-86
2022/10/21 14:29:01;;;;;;;14.20;8.88;;;;;;;;;;1926140;74;21127;-87
2022/10/21 14:31:32;;;;;;;14.87;8.98;;;;;;;;;;1911335;74;21134;-87
2022/10/21 14:34:06;;;;;;;13.62;8.75;;;;;;;;;;1915293;74;21123;-87
2022/10/21 14:36:36;;;;;;;18.42;8.95;;;;;;;;;;1905727;74;21053;-88
2022/10/21 14:39:07;;;;;;;18.27;10.30;;;;;;;;;;1913010;74;21181;-86
2022/10/21 14:41:40;;;;;;;14.70;9.03;;;;;;;;;;1926484;74;21217;-84
2022/10/21 14:44:16;;;;;;;16.27;8.83;;;;;;;;;;1927831;74;21128;-80
2022/10/21 14:46:47;;;;;;;15.53;9.55;;;;;;;;;;1924186;74;21107;-83
2022/10/21 14:49:22;;;;;;;12.82;8.55;;;;;;;;;;1911279;74;21662;-83
2022/10/21 14:51:53;;;;;;;12.85;8.75;;;;;;;;;;1921873;74;21100;-84
2022/10/21 14:54:26;;;;;;;17.40;8.93;;;;;;;;;;1917440;74;21202;-85
2022/10/21 14:57:02;;;;;;;12.90;8.53;;;;;;;;;;1921581;74;21166;-84
2022/10/21 15:02:29;;;;;;;11.90;7.83;;;;;;;;;;1857886;74;21135;-84
2022/10/21 15:05:00;;;;;;;16.48;8.00;;;;;;;;;;1924992;74;21132;-85
2022/10/21 15:07:40;;;;;;;13.48;7.62;;;;;;;;;;1908678;74;21182;-85
2022/10/21 15:10:08;;;;;;;10.10;6.67;;;;;;;;;;1913710;74;21111;-84
2022/10/21 15:12:49;;;;;;;11.30;6.80;;;;;;;;;;1926225;74;21660;-84